Time;durP1;ratioP1;P1;durP2;ratioP2;P2;SDS_P1;SDS_P2;PMS_P1;PMS_P2;Temp;Humidity;BMP_temperature;BMP_pressure;BME280_temperature;BME280_humidity;BME280_pressure;Samples;Min_cycle;Max_cycle;Signal;HPM_P1;HPM_P2
2021/09/05 00:00:35;;;;;;;4.90;2.35;;;12.10;61.80;;;;;;4860870;29;20492;-63
2021/09/05 00:03:00;;;;;;;5.45;2.85;;;12.10;62.00;;;;;;4861050;29;20108;-61
2021/09/05 00:05:26;;;;;;;5.97;3.15;;;12.10;62.00;;;;;;4860945;29;20113;-62
2021/09/05 00:07:52;;;;;;;6.50;3.47;;;12.10;62.40;;;;;;4860942;29;20556;-61
2021/09/05 00:10:17;;;;;;;8.68;3.90;;;12.00;62.20;;;;;;4860717;29;20120;-62
2021/09/05 00:12:43;;;;;;;7.72;4.30;;;12.00;62.90;;;;;;4860799;29;20112;-62
2021/09/05 00:15:10;;;;;;;7.72;4.30;;;11.90;63.40;;;;;;4860686;29;20393;-62
2021/09/05 00:17:37;;;;;;;7.95;4.28;;;11.70;63.60;;;;;;4860794;29;20072;-63
2021/09/05 00:20:04;;;;;;;8.32;4.28;;;11.60;64.00;;;;;;4860804;29;20033;-62
2021/09/05 00:22:30;;;;;;;7.97;4.00;;;11.50;64.10;;;;;;4860514;29;20480;-62
2021/09/05 00:24:56;;;;;;;7.68;3.55;;;11.30;64.40;;;;;;4860553;29;20057;-63
2021/09/05 00:27:21;;;;;;;7.00;3.78;;;11.30;64.10;;;;;;4860582;29;20072;-62
2021/09/05 00:29:47;;;;;;;6.85;3.67;;;11.20;64.10;;;;;;4860343;29;20120;-62
2021/09/05 00:32:12;;;;;;;6.50;3.60;;;11.30;64.10;;;;;;4860546;29;20029;-62
2021/09/05 00:34:38;;;;;;;7.50;3.60;;;11.30;64.00;;;;;;4860717;29;20030;-62
2021/09/05 00:37:04;;;;;;;6.97;4.07;;;11.30;64.00;;;;;;4860606;29;20448;-62
2021/09/05 00:39:29;;;;;;;7.78;4.07;;;11.30;64.30;;;;;;4860477;29;20034;-62
2021/09/05 00:41:55;;;;;;;6.70;3.70;;;11.30;64.20;;;;;;4860342;29;20474;-63
2021/09/05 00:44:21;;;;;;;8.90;3.90;;;11.30;64.00;;;;;;4860249;29;20097;-62
2021/09/05 00:46:47;;;;;;;7.20;3.65;;;11.30;64.00;;;;;;4860110;29;20056;-62
2021/09/05 00:49:13;;;;;;;7.18;3.70;;;11.20;63.80;;;;;;4859724;29;20044;-62
2021/09/05 00:51:41;;;;;;;7.28;3.80;;;11.20;63.80;;;;;;4860146;29;20390;-62
2021/09/05 00:54:09;;;;;;;6.88;3.55;;;11.30;63.80;;;;;;4860067;29;20355;-62
2021/09/05 00:56:37;;;;;;;6.68;3.30;;;11.30;63.70;;;;;;4860103;29;20037;-62
2021/09/05 00:59:08;;;;;;;6.60;3.35;;;11.30;63.50;;;;;;4860041;29;20026;-63
2021/09/05 01:01:36;;;;;;;6.00;3.03;;;11.30;63.40;;;;;;4860347;29;20060;-62
2021/09/05 01:04:02;;;;;;;5.70;2.90;;;11.40;63.20;;;;;;4860217;29;20494;-62
2021/09/05 01:06:28;;;;;;;7.45;3.33;;;11.40;63.10;;;;;;4860167;29;20109;-62
2021/09/05 01:08:56;;;;;;;6.55;3.47;;;11.40;63.00;;;;;;4859998;29;20029;-62
2021/09/05 01:11:23;;;;;;;6.20;3.25;;;11.40;63.00;;;;;;4860036;29;20629;-62
2021/09/05 01:13:49;;;;;;;6.82;3.40;;;11.40;63.00;;;;;;4860332;29;20529;-62
2021/09/05 01:16:31;;;;;;;6.93;3.28;;;11.40;63.00;;;;;;4860015;29;20434;-62
2021/09/05 01:19:14;;;;;;;7.35;3.35;;;11.40;63.10;;;;;;4859657;29;20033;-61
2021/09/05 01:21:41;;;;;;;5.78;2.80;;;11.30;63.00;;;;;;4859673;29;20030;-62
2021/09/05 01:24:08;;;;;;;6.53;3.10;;;11.30;63.00;;;;;;4859774;29;20048;-62
2021/09/05 01:26:36;;;;;;;6.05;2.97;;;11.30;63.10;;;;;;4859624;29;20485;-62
2021/09/05 01:29:04;;;;;;;7.25;3.50;;;11.20;63.20;;;;;;4859616;29;20435;-62
2021/09/05 01:31:42;;;;;;;6.07;3.30;;;11.20;64.00;;;;;;4859687;29;20491;-61
2021/09/05 01:34:09;;;;;;;6.25;3.13;;;11.10;64.00;;;;;;4859701;29;20034;-62
2021/09/05 01:36:36;;;;;;;6.72;3.50;;;11.10;64.00;;;;;;4859856;29;20042;-61
2021/09/05 01:39:03;;;;;;;6.82;3.35;;;11.10;64.20;;;;;;4859847;29;20115;-62
2021/09/05 01:41:29;;;;;;;6.95;3.40;;;11.10;64.30;;;;;;4859678;29;20466;-61
2021/09/05 01:44:03;;;;;;;6.78;3.20;;;11.10;64.50;;;;;;4859792;29;20029;-62
2021/09/05 01:46:29;;;;;;;6.07;3.20;;;11.10;64.30;;;;;;4859449;29;20449;-61
2021/09/05 01:48:55;;;;;;;6.35;3.28;;;11.10;64.40;;;;;;4859439;29;20065;-62
2021/09/05 01:51:21;;;;;;;6.32;3.22;;;11.10;64.40;;;;;;4859374;29;20033;-62
2021/09/05 01:53:46;;;;;;;5.70;2.80;;;11.10;64.40;;;;;;4859476;29;20030;-61
2021/09/05 01:56:12;;;;;;;5.85;3.00;;;11.10;64.30;;;;;;4859524;29;20533;-62
2021/09/05 01:58:38;;;;;;;5.82;2.78;;;11.10;64.30;;;;;;4859558;29;20393;-62
2021/09/05 02:01:04;;;;;;;6.93;3.35;;;11.10;64.20;;;;;;4862663;29;20029;-62
2021/09/05 02:03:29;;;;;;;7.05;3.70;;;11.10;64.30;;;;;;4863142;29;20038;-62
2021/09/05 02:05:55;;;;;;;7.47;4.05;;;11.10;64.70;;;;;;4863042;29;20521;-61
2021/09/05 02:08:21;;;;;;;7.80;4.05;;;11.00;64.70;;;;;;4862965;29;20474;-61
2021/09/05 02:10:46;;;;;;;7.55;4.00;;;11.00;65.00;;;;;;4862845;29;20033;-61
2021/09/05 02:13:12;;;;;;;7.45;4.10;;;11.00;64.50;;;;;;4862992;29;20029;-61
2021/09/05 02:15:38;;;;;;;7.63;4.22;;;10.90;64.40;;;;;;4862855;29;20434;-62
2021/09/05 02:18:04;;;;;;;7.65;4.45;;;10.90;64.50;;;;;;4862865;29;20504;-62
2021/09/05 02:20:29;;;;;;;7.53;4.00;;;10.90;64.50;;;;;;4862746;29;20038;-62
2021/09/05 02:22:55;;;;;;;7.43;4.15;;;10.80;64.50;;;;;;4862686;29;20532;-61
2021/09/05 02:25:21;;;;;;;7.40;3.97;;;10.80;64.40;;;;;;4862597;29;20496;-62
2021/09/05 02:27:46;;;;;;;7.10;3.90;;;10.80;64.50;;;;;;4862602;29;20037;-62
2021/09/05 02:30:13;;;;;;;7.78;3.90;;;10.70;64.70;;;;;;4862516;29;20037;-62
2021/09/05 02:32:39;;;;;;;6.95;3.55;;;10.80;64.80;;;;;;4862484;29;20026;-62
2021/09/05 02:35:06;;;;;;;7.57;3.80;;;10.80;64.80;;;;;;4862678;29;20029;-62
2021/09/05 02:37:32;;;;;;;8.32;3.78;;;10.80;64.80;;;;;;4862553;29;20026;-62
2021/09/05 02:39:58;;;;;;;7.70;4.20;;;10.90;64.80;;;;;;4862492;29;20032;-62
2021/09/05 02:42:23;;;;;;;7.57;3.90;;;10.90;64.80;;;;;;4862267;29;20033;-62
2021/09/05 02:44:49;;;;;;;7.47;4.00;;;10.90;64.80;;;;;;4862648;29;20037;-62
2021/09/05 02:47:15;;;;;;;9.40;4.57;;;10.90;64.90;;;;;;4862494;29;20036;-62
2021/09/05 02:49:41;;;;;;;8.25;4.05;;;10.80;64.90;;;;;;4862419;29;20094;-62
2021/09/05 02:52:09;;;;;;;7.25;3.50;;;10.80;64.80;;;;;;4862439;29;20034;-62
2021/09/05 02:54:39;;;;;;;6.53;3.70;;;10.70;64.80;;;;;;4862578;29;20090;-62
2021/09/05 02:57:05;;;;;;;7.28;3.55;;;10.70;64.90;;;;;;4862286;29;20490;-62
2021/09/05 02:59:32;;;;;;;6.78;3.80;;;10.60;65.00;;;;;;4862429;29;20041;-61
2021/09/05 03:01:59;;;;;;;8.27;4.40;;;10.60;65.20;;;;;;4862488;29;20075;-61
2021/09/05 03:04:25;;;;;;;6.88;4.00;;;10.60;65.60;;;;;;4862325;29;20480;-62
2021/09/05 03:06:51;;;;;;;8.95;4.20;;;10.50;65.60;;;;;;4862076;29;20117;-62
2021/09/05 03:09:16;;;;;;;7.60;3.80;;;10.50;65.70;;;;;;4861657;29;20120;-61
2021/09/05 03:11:42;;;;;;;7.60;3.90;;;10.50;65.70;;;;;;4861426;29;20025;-61
2021/09/05 03:14:08;;;;;;;6.20;3.45;;;10.40;65.70;;;;;;4861796;29;20086;-62
2021/09/05 03:16:33;;;;;;;6.85;3.55;;;10.40;65.60;;;;;;4861910;29;20373;-63
2021/09/05 03:18:59;;;;;;;7.28;3.92;;;10.40;65.70;;;;;;4861701;29;20032;-62
2021/09/05 03:21:25;;;;;;;7.43;3.70;;;10.40;65.70;;;;;;4861720;29;20441;-62
2021/09/05 03:23:50;;;;;;;6.85;3.50;;;10.40;65.60;;;;;;4861570;29;20053;-63
2021/09/05 03:26:16;;;;;;;7.30;3.78;;;10.40;65.80;;;;;;4861588;29;20057;-64
2021/09/05 03:28:41;;;;;;;7.63;3.80;;;10.40;65.90;;;;;;4861530;29;20026;-63
2021/09/05 03:31:07;;;;;;;8.00;3.75;;;10.40;65.80;;;;;;4861491;29;20069;-63
2021/09/05 03:33:33;;;;;;;7.68;3.80;;;10.40;65.90;;;;;;4861482;29;20029;-63
2021/09/05 03:35:59;;;;;;;8.32;3.92;;;10.40;66.20;;;;;;4861590;29;20025;-63
2021/09/05 03:38:24;;;;;;;7.30;3.60;;;10.40;66.50;;;;;;4844977;29;20377;-62
2021/09/05 03:40:50;;;;;;;7.18;3.90;;;10.40;66.50;;;;;;4861687;29;20473;-61
2021/09/05 03:43:16;;;;;;;10.10;4.50;;;10.40;66.80;;;;;;4861589;29;20033;-62
2021/09/05 03:45:41;;;;;;;8.25;4.70;;;10.40;67.20;;;;;;4861299;29;20071;-62
2021/09/05 03:48:07;;;;;;;8.63;4.57;;;10.40;67.40;;;;;;4861318;29;20057;-62
2021/09/05 03:50:33;;;;;;;8.13;4.53;;;10.50;67.30;;;;;;4861299;29;20473;-63
2021/09/05 03:52:58;;;;;;;8.50;4.43;;;10.50;67.30;;;;;;4861214;29;20021;-62
2021/09/05 03:55:25;;;;;;;7.00;3.70;;;10.50;67.20;;;;;;4861063;29;20129;-62
2021/09/05 03:57:50;;;;;;;8.15;4.50;;;10.60;67.30;;;;;;4861054;29;20021;-63
2021/09/05 04:00:16;;;;;;;8.55;4.70;;;10.60;67.40;;;;;;4861067;29;20362;-63
2021/09/05 04:02:42;;;;;;;9.10;5.22;;;10.50;67.40;;;;;;4861009;29;20498;-62
2021/09/05 04:05:08;;;;;;;7.68;4.68;;;10.60;67.70;;;;;;4860878;29;20037;-63
2021/09/05 04:07:34;;;;;;;8.40;4.80;;;10.60;67.50;;;;;;4860907;29;20041;-62
2021/09/05 04:10:10;;;;;;;8.07;4.47;;;10.70;67.50;;;;;;4860831;29;20037;-63
2021/09/05 04:12:40;;;;;;;7.90;4.47;;;10.70;67.40;;;;;;4860796;29;20477;-64
2021/09/05 04:15:07;;;;;;;7.93;5.07;;;10.70;67.40;;;;;;4861064;29;20039;-63
2021/09/05 04:17:32;;;;;;;8.95;5.10;;;10.70;68.20;;;;;;4860636;29;20389;-63
2021/09/05 04:19:58;;;;;;;8.55;4.50;;;10.80;67.50;;;;;;4860708;29;20029;-64
2021/09/05 04:22:24;;;;;;;8.52;5.18;;;10.80;67.40;;;;;;4859778;29;20121;-63
2021/09/05 04:24:50;;;;;;;8.15;4.90;;;10.90;67.40;;;;;;4860649;29;20477;-63
2021/09/05 04:27:16;;;;;;;8.52;5.10;;;10.90;67.40;;;;;;4860381;29;20477;-64
2021/09/05 04:29:42;;;;;;;8.75;5.10;;;11.00;67.50;;;;;;4860541;29;20055;-64
2021/09/05 04:32:08;;;;;;;8.43;4.65;;;11.00;67.60;;;;;;4860375;29;20085;-63
2021/09/05 04:34:34;;;;;;;8.13;4.70;;;11.10;67.70;;;;;;4860241;29;20045;-62
2021/09/05 04:37:00;;;;;;;8.05;4.75;;;11.10;67.90;;;;;;4860217;29;20100;-63
2021/09/05 04:39:26;;;;;;;8.85;5.07;;;11.20;67.70;;;;;;4860276;29;20113;-63
2021/09/05 04:41:51;;;;;;;8.52;4.72;;;11.20;67.80;;;;;;4860340;29;20139;-62
2021/09/05 04:44:17;;;;;;;10.48;5.45;;;11.30;67.70;;;;;;4860163;29;20124;-64
2021/09/05 04:46:44;;;;;;;10.05;5.70;;;11.30;67.70;;;;;;4860290;29;20036;-62
2021/09/05 04:49:11;;;;;;;9.88;6.10;;;11.30;67.80;;;;;;4860120;29;20029;-63
2021/09/05 04:51:37;;;;;;;9.30;5.85;;;11.30;67.90;;;;;;4860157;29;20033;-62
2021/09/05 04:54:03;;;;;;;8.20;4.80;;;11.30;68.10;;;;;;4860026;29;20129;-63
2021/09/05 04:56:29;;;;;;;8.77;4.63;;;11.40;68.20;;;;;;4860059;29;20025;-63
2021/09/05 04:58:54;;;;;;;8.35;4.68;;;11.40;68.20;;;;;;4860027;29;20085;-62
2021/09/05 05:01:20;;;;;;;7.70;4.63;;;11.40;68.20;;;;;;4860417;29;20029;-63
2021/09/05 05:03:46;;;;;;;7.95;4.72;;;11.50;68.10;;;;;;4860393;29;20430;-62
2021/09/05 05:06:12;;;;;;;7.95;4.60;;;11.50;67.90;;;;;;4860164;29;20162;-63
2021/09/05 05:08:37;;;;;;;7.28;4.20;;;11.60;67.50;;;;;;4859847;29;20029;-62
2021/09/05 05:11:03;;;;;;;7.45;4.20;;;11.60;67.10;;;;;;4859768;29;20033;-63
2021/09/05 05:13:29;;;;;;;6.97;3.65;;;11.60;66.90;;;;;;4859784;29;20430;-63
2021/09/05 05:15:55;;;;;;;7.43;3.92;;;11.70;66.50;;;;;;4859537;29;20034;-63
2021/09/05 05:18:24;;;;;;;7.55;3.88;;;11.70;66.50;;;;;;4859713;29;20032;-63
2021/09/05 05:20:50;;;;;;;8.13;4.25;;;11.70;66.40;;;;;;4859838;29;20365;-63
2021/09/05 05:23:17;;;;;;;7.53;3.95;;;11.80;66.30;;;;;;4859474;29;20420;-62
2021/09/05 05:25:43;;;;;;;7.10;4.20;;;11.80;66.20;;;;;;4859685;29;20418;-63
2021/09/05 05:28:09;;;;;;;7.78;4.40;;;11.90;66.20;;;;;;4859660;29;20033;-63
2021/09/05 05:30:35;;;;;;;7.30;3.33;;;11.90;66.20;;;;;;4859563;29;20359;-64
2021/09/05 05:33:01;;;;;;;8.13;4.43;;;12.00;65.80;;;;;;4859507;29;20025;-65
2021/09/05 05:35:27;;;;;;;8.07;4.10;;;12.00;65.70;;;;;;4859405;29;20574;-64
2021/09/05 05:37:53;;;;;;;7.72;4.40;;;12.00;65.50;;;;;;4859516;29;20072;-64
2021/09/05 05:40:25;;;;;;;7.82;4.47;;;12.00;65.50;;;;;;4859477;29;20061;-62
2021/09/05 05:42:51;;;;;;;6.60;4.00;;;12.10;65.60;;;;;;4859377;29;20029;-63
2021/09/05 05:45:17;;;;;;;7.65;4.18;;;12.10;65.30;;;;;;4859480;29;20106;-63
2021/09/05 05:47:44;;;;;;;7.88;4.35;;;12.10;65.20;;;;;;4859398;29;20470;-64
2021/09/05 05:50:10;;;;;;;6.30;3.45;;;12.10;65.20;;;;;;4859453;29;20125;-65
2021/09/05 05:52:36;;;;;;;7.05;3.53;;;12.10;64.90;;;;;;4859282;29;20049;-63
2021/09/05 05:55:01;;;;;;;6.22;3.55;;;12.20;64.70;;;;;;4859377;29;20375;-62
2021/09/05 05:57:27;;;;;;;7.00;3.33;;;12.20;65.20;;;;;;4859219;29;20100;-64
2021/09/05 05:59:53;;;;;;;5.93;3.10;;;12.20;64.70;;;;;;4859508;29;20043;-64
2021/09/05 06:02:18;;;;;;;6.82;3.00;;;12.20;64.70;;;;;;4859176;29;20386;-63
2021/09/05 06:04:44;;;;;;;6.07;3.08;;;12.30;64.60;;;;;;4859344;29;20060;-64
2021/09/05 06:07:10;;;;;;;5.95;3.15;;;12.30;64.30;;;;;;4859323;29;20076;-65
2021/09/05 06:09:40;;;;;;;4.97;2.45;;;12.30;64.20;;;;;;4859145;29;20040;-65
2021/09/05 06:12:10;;;;;;;5.78;2.60;;;12.40;63.90;;;;;;4859082;29;20022;-63
2021/09/05 06:14:37;;;;;;;5.40;2.85;;;12.40;63.50;;;;;;4859187;29;20363;-64
2021/09/05 06:17:03;;;;;;;5.60;2.70;;;12.50;63.30;;;;;;4859143;29;20040;-64
2021/09/05 06:19:30;;;;;;;6.55;2.88;;;12.50;63.10;;;;;;4858955;29;20097;-62
2021/09/05 06:21:55;;;;;;;5.95;2.97;;;12.60;63.10;;;;;;4859189;29;20034;-64
2021/09/05 06:24:22;;;;;;;4.80;2.50;;;12.60;62.90;;;;;;4859234;29;20057;-64
2021/09/05 06:26:48;;;;;;;5.20;2.50;;;12.70;63.00;;;;;;4859288;29;20446;-64
2021/09/05 06:29:14;;;;;;;5.85;2.90;;;12.80;62.90;;;;;;4842551;29;20034;-63
2021/09/05 06:31:40;;;;;;;5.13;2.40;;;12.80;62.60;;;;;;4859014;29;20080;-65
2021/09/05 06:34:05;;;;;;;5.32;2.70;;;12.90;62.40;;;;;;4859047;29;20435;-62
2021/09/05 06:36:32;;;;;;;6.10;2.80;;;13.00;62.30;;;;;;4859201;29;20046;-65
2021/09/05 06:38:57;;;;;;;6.40;3.20;;;13.10;62.30;;;;;;4859410;29;20561;-64
2021/09/05 06:41:23;;;;;;;6.53;3.25;;;13.10;62.80;;;;;;4858780;29;20021;-64
2021/09/05 06:43:49;;;;;;;6.20;3.10;;;13.20;62.30;;;;;;4859012;29;20039;-63
2021/09/05 06:46:14;;;;;;;7.15;3.92;;;13.30;62.10;;;;;;4860524;29;20406;-63
2021/09/05 06:48:41;;;;;;;6.20;2.78;;;13.40;61.80;;;;;;4862344;29;20030;-64
2021/09/05 06:51:07;;;;;;;6.32;2.65;;;13.50;61.40;;;;;;4862057;29;20033;-64
2021/09/05 06:53:33;;;;;;;4.90;2.35;;;13.60;61.20;;;;;;4862532;29;20030;-64
2021/09/05 06:55:58;;;;;;;5.53;2.67;;;13.60;61.00;;;;;;4862155;29;20018;-64
2021/09/05 06:58:24;;;;;;;5.72;3.17;;;13.70;60.80;;;;;;4862124;29;20116;-65
2021/09/05 07:00:52;;;;;;;6.15;3.30;;;13.70;60.30;;;;;;4862043;29;20038;-64
2021/09/05 07:03:17;;;;;;;5.50;2.72;;;13.90;60.30;;;;;;4862040;29;20033;-64
2021/09/05 07:05:43;;;;;;;5.80;2.78;;;13.90;60.00;;;;;;4862070;29;20366;-63
2021/09/05 07:08:09;;;;;;;6.20;3.28;;;14.10;59.60;;;;;;4845429;29;20518;-66
2021/09/05 07:10:36;;;;;;;6.15;3.13;;;14.10;59.10;;;;;;4845140;29;20040;-65
2021/09/05 07:13:02;;;;;;;6.05;2.70;;;14.20;59.00;;;;;;4861743;29;20484;-65
2021/09/05 07:15:27;;;;;;;5.45;2.60;;;14.20;59.10;;;;;;4861893;29;20021;-65
2021/09/05 07:17:53;;;;;;;5.95;3.10;;;14.30;59.40;;;;;;4861790;29;20162;-65
2021/09/05 07:20:19;;;;;;;5.30;2.65;;;14.50;59.80;;;;;;4861891;29;20029;-65
2021/09/05 07:22:44;;;;;;;4.60;2.17;;;14.70;59.90;;;;;;4861584;29;20509;-64
2021/09/05 07:25:10;;;;;;;4.72;2.40;;;14.90;59.90;;;;;;4862038;29;20041;-63
2021/09/05 07:27:36;;;;;;;5.75;2.60;;;15.20;58.80;;;;;;4861792;29;20037;-63
2021/09/05 07:30:04;;;;;;;5.35;2.20;;;15.40;58.90;;;;;;4861595;29;20040;-64
2021/09/05 07:32:29;;;;;;;4.43;1.95;;;15.60;58.60;;;;;;4861546;29;20029;-66
2021/09/05 07:34:55;;;;;;;4.10;1.88;;;15.90;58.60;;;;;;4861275;29;20033;-64
2021/09/05 07:37:21;;;;;;;3.28;1.70;;;16.20;57.90;;;;;;4861344;29;20117;-64
2021/09/05 07:39:46;;;;;;;4.88;2.20;;;16.40;57.10;;;;;;4861238;29;20025;-65
2021/09/05 07:42:12;;;;;;;4.65;2.13;;;16.70;55.90;;;;;;4861296;29;20048;-64
2021/09/05 07:44:38;;;;;;;4.70;2.30;;;16.90;56.20;;;;;;4861302;29;20034;-64
2021/09/05 07:47:04;;;;;;;7.25;2.38;;;17.30;53.20;;;;;;4861226;29;20458;-67
2021/09/05 07:49:29;;;;;;;4.60;2.20;;;17.40;51.90;;;;;;4861200;29;20033;-64
2021/09/05 07:51:55;;;;;;;6.10;2.17;;;17.60;52.20;;;;;;4861226;29;20033;-65
2021/09/05 07:54:21;;;;;;;4.82;2.05;;;17.80;51.50;;;;;;4861468;29;20050;-64
2021/09/05 07:56:47;;;;;;;4.10;2.00;;;18.00;51.00;;;;;;4860380;29;20394;-65
2021/09/05 07:59:12;;;;;;;3.95;1.60;;;18.20;50.30;;;;;;4860606;29;20026;-63
2021/09/05 08:01:39;;;;;;;3.88;1.70;;;18.30;50.40;;;;;;4861031;29;20029;-64
2021/09/05 08:04:05;;;;;;;3.55;1.60;;;18.50;50.50;;;;;;4861001;29;20091;-65
2021/09/05 08:06:31;;;;;;;3.97;1.60;;;18.80;50.80;;;;;;4844421;29;20033;-64
2021/09/05 08:08:57;;;;;;;3.60;1.80;;;19.10;50.00;;;;;;4860936;29;20030;-64
2021/09/05 08:11:24;;;;;;;3.45;1.40;;;19.30;48.90;;;;;;4861023;29;20557;-65
2021/09/05 08:13:50;;;;;;;3.50;1.40;;;19.70;49.70;;;;;;4861130;29;20038;-68
2021/09/05 08:16:15;;;;;;;3.80;1.45;;;20.10;49.00;;;;;;4860915;29;20616;-65
2021/09/05 08:18:41;;;;;;;4.22;1.40;;;20.50;48.10;;;;;;4860748;29;20029;-66
2021/09/05 08:21:08;;;;;;;3.30;1.48;;;20.80;47.20;;;;;;4860613;29;20034;-65
2021/09/05 08:23:36;;;;;;;3.47;1.40;;;21.00;47.60;;;;;;4860583;29;20448;-65
2021/09/05 08:26:04;;;;;;;3.80;1.50;;;21.30;47.30;;;;;;4860552;29;20025;-65
2021/09/05 08:28:29;;;;;;;4.20;1.33;;;21.80;45.30;;;;;;4860703;29;20018;-66
2021/09/05 08:30:55;;;;;;;2.90;1.30;;;21.90;44.00;;;;;;4860295;29;20032;-64
2021/09/05 08:33:21;;;;;;;2.80;1.40;;;22.00;45.00;;;;;;4860462;29;20033;-63
2021/09/05 08:35:47;;;;;;;3.03;1.33;;;22.30;44.50;;;;;;4860399;29;20028;-63
2021/09/05 08:38:13;;;;;;;3.47;1.40;;;22.60;43.80;;;;;;4860421;29;20128;-67
2021/09/05 08:40:57;;;;;;;2.83;1.30;;;22.90;42.60;;;;;;4843709;29;20117;-64
2021/09/05 08:43:23;;;;;;;3.80;1.40;;;23.20;40.60;;;;;;4828722;29;20025;-63
2021/09/05 08:45:50;;;;;;;3.35;1.40;;;23.40;42.70;;;;;;4843861;29;20112;-66
2021/09/05 08:48:17;;;;;;;3.47;1.60;;;23.80;41.20;;;;;;4860250;29;20162;-65
2021/09/05 08:50:45;;;;;;;3.00;1.33;;;24.00;39.60;;;;;;4843459;29;20491;-67
2021/09/05 08:53:10;;;;;;;2.78;1.17;;;24.10;39.90;;;;;;4860016;29;20040;-68
2021/09/05 08:55:36;;;;;;;2.13;1.02;;;24.30;39.20;;;;;;4860130;29;20033;-66
2021/09/05 08:58:02;;;;;;;2.58;1.10;;;24.50;39.20;;;;;;4843491;29;20124;-64
2021/09/05 09:00:28;;;;;;;1.52;0.80;;;24.70;39.20;;;;;;4859963;29;20121;-63
2021/09/05 09:02:56;;;;;;;2.13;0.80;;;25.00;37.50;;;;;;4859922;29;20112;-64
2021/09/05 09:05:34;;;;;;;2.85;1.05;;;25.20;37.80;;;;;;4859886;29;20432;-65
2021/09/05 09:08:13;;;;;;;4.00;1.20;;;25.50;34.50;;;;;;4859732;29;20060;-64
2021/09/05 09:10:57;;;;;;;3.28;1.10;;;25.50;33.90;;;;;;4859883;29;20474;-64
2021/09/05 09:13:38;;;;;;;2.78;1.00;;;25.20;32.00;;;;;;4859870;29;20030;-64
2021/09/05 09:16:06;;;;;;;2.70;1.15;;;25.10;34.50;;;;;;4859761;29;20060;-64
2021/09/05 09:18:32;;;;;;;2.45;1.00;;;25.30;33.80;;;;;;4859673;29;20481;-64
2021/09/05 09:21:05;;;;;;;2.17;0.98;;;25.30;33.10;;;;;;4859693;29;20061;-65
2021/09/05 09:23:35;;;;;;;2.33;0.90;;;25.40;32.30;;;;;;4859496;29;20532;-64
2021/09/05 09:26:03;;;;;;;2.13;0.90;;;25.20;33.00;;;;;;4859719;29;20040;-66
2021/09/05 09:28:47;;;;;;;1.58;0.80;;;25.30;33.70;;;;;;4859690;29;20127;-65
2021/09/05 09:31:28;;;;;;;2.13;0.90;;;25.70;33.60;;;;;;4859568;29;20026;-65
2021/09/05 09:33:55;;;;;;;1.50;0.83;;;25.90;32.60;;;;;;4859567;29;20033;-67
2021/09/05 09:36:22;;;;;;;2.72;1.00;;;25.90;33.80;;;;;;4859751;29;20264;-64
2021/09/05 09:38:58;;;;;;;2.28;1.10;;;26.30;32.60;;;;;;4859269;29;20124;-64
2021/09/05 09:41:31;;;;;;;2.00;1.00;;;26.50;32.70;;;;;;4859592;29;20022;-65
2021/09/05 09:44:00;;;;;;;2.00;0.95;;;26.70;31.80;;;;;;4859514;29;20030;-64
2021/09/05 09:46:31;;;;;;;1.50;0.73;;;26.60;31.30;;;;;;4859417;29;20108;-64
2021/09/05 09:49:00;;;;;;;2.38;0.90;;;26.70;31.20;;;;;;4859610;29;20412;-64
2021/09/05 09:51:26;;;;;;;1.73;0.80;;;26.80;31.80;;;;;;4859349;29;20089;-65
2021/09/05 09:53:53;;;;;;;3.53;1.08;;;27.00;32.00;;;;;;4859482;29;20030;-65
2021/09/05 09:56:20;;;;;;;3.55;1.20;;;27.40;30.70;;;;;;4859427;29;20026;-65
2021/09/05 09:58:51;;;;;;;2.35;1.10;;;27.40;31.20;;;;;;4859408;29;20021;-65
2021/09/05 10:01:19;;;;;;;2.67;1.30;;;27.40;31.50;;;;;;4859424;29;20533;-64
2021/09/05 10:03:47;;;;;;;2.00;0.95;;;27.80;31.00;;;;;;4859416;29;20044;-63
2021/09/05 10:06:14;;;;;;;1.92;0.98;;;27.90;30.50;;;;;;4859350;29;20025;-65
2021/09/05 10:08:53;;;;;;;1.98;1.00;;;27.90;30.60;;;;;;4859672;29;20033;-64
2021/09/05 10:11:20;;;;;;;2.78;1.10;;;28.10;29.90;;;;;;4859187;29;20029;-63
2021/09/05 10:13:48;;;;;;;2.63;1.10;;;28.10;29.60;;;;;;4859463;29;20054;-64
2021/09/05 10:16:14;;;;;;;4.28;1.50;;;27.90;30.00;;;;;;4859147;29;20056;-63
2021/09/05 10:18:48;;;;;;;2.50;1.20;;;28.00;29.70;;;;;;4859179;29;20038;-65
2021/09/05 10:21:16;;;;;;;4.55;2.00;;;28.20;29.50;;;;;;4861142;29;20037;-63
2021/09/05 10:23:51;;;;;;;5.20;2.30;;;28.20;30.20;;;;;;4862444;29;20060;-64
2021/09/05 10:26:17;;;;;;;5.30;2.53;;;28.50;30.40;;;;;;4862580;29;20058;-64
2021/09/05 10:28:53;;;;;;;5.43;2.58;;;28.80;29.70;;;;;;4846080;29;20117;-64
2021/09/05 10:31:29;;;;;;;4.43;1.80;;;29.10;29.30;;;;;;4862514;29;20025;-66
2021/09/05 10:33:55;;;;;;;3.83;1.58;;;29.10;29.00;;;;;;4862465;29;20029;-64
2021/09/05 10:36:25;;;;;;;4.35;1.83;;;29.20;29.00;;;;;;4862484;29;20030;-65
2021/09/05 10:39:12;;;;;;;4.03;1.83;;;29.30;29.50;;;;;;4862416;29;20489;-64
2021/09/05 10:41:52;;;;;;;4.65;1.95;;;29.30;29.40;;;;;;4862210;29;20116;-67
2021/09/05 10:44:19;;;;;;;4.07;1.30;;;29.50;28.60;;;;;;4862396;29;20036;-64
2021/09/05 10:46:47;;;;;;;4.07;1.50;;;29.40;28.80;;;;;;4862372;29;20562;-65
2021/09/05 10:49:13;;;;;;;2.35;1.05;;;29.30;29.10;;;;;;4862500;29;20055;-63
2021/09/05 10:51:48;;;;;;;2.60;1.00;;;29.50;28.50;;;;;;4862273;29;20056;-63
2021/09/05 10:54:27;;;;;;;4.82;1.67;;;29.50;28.70;;;;;;4862310;29;20033;-64
2021/09/05 10:56:58;;;;;;;3.92;1.45;;;29.60;28.60;;;;;;4862166;29;20675;-64
2021/09/05 10:59:26;;;;;;;3.20;1.30;;;29.80;28.80;;;;;;4862128;29;20030;-64
2021/09/05 11:01:51;;;;;;;2.60;1.10;;;30.10;28.80;;;;;;4862205;29;20315;-65
2021/09/05 11:04:24;;;;;;;2.85;1.27;;;30.40;28.70;;;;;;4845530;29;20081;-65
2021/09/05 11:06:56;;;;;;;4.30;1.73;;;30.00;27.50;;;;;;4862045;29;20037;-62
2021/09/05 11:09:24;;;;;;;4.53;1.60;;;29.40;28.30;;;;;;4861957;29;20037;-62
2021/09/05 11:11:57;;;;;;;3.67;1.40;;;29.30;28.20;;;;;;4861953;29;20389;-64
2021/09/05 11:14:35;;;;;;;2.85;1.08;;;29.30;28.00;;;;;;4861746;29;20029;-64
2021/09/05 11:17:25;;;;;;;2.50;1.10;;;29.50;28.20;;;;;;4861692;29;20125;-63
2021/09/05 11:19:59;;;;;;;2.67;1.10;;;30.00;27.30;;;;;;4861789;29;20038;-65
2021/09/05 11:22:37;;;;;;;2.40;1.20;;;29.90;27.40;;;;;;4861742;29;20057;-65
2021/09/05 11:25:14;;;;;;;2.03;1.00;;;29.80;27.00;;;;;;4861889;29;20034;-64
2021/09/05 11:27:48;;;;;;;2.70;1.17;;;28.90;27.10;;;;;;4861811;29;20508;-66
2021/09/05 11:30:14;;;;;;;2.92;1.20;;;27.70;27.60;;;;;;4861429;29;20112;-64
2021/09/05 11:32:40;;;;;;;3.15;1.13;;;26.80;28.50;;;;;;4861290;29;20482;-64
2021/09/05 11:35:08;;;;;;;2.40;1.13;;;26.60;28.90;;;;;;4861552;29;20477;-65
2021/09/05 11:37:37;;;;;;;3.60;1.00;;;27.10;29.00;;;;;;4861554;29;20052;-64
2021/09/05 11:40:06;;;;;;;2.67;1.20;;;27.70;29.00;;;;;;4861366;29;20026;-63
2021/09/05 11:42:32;;;;;;;2.25;0.90;;;28.30;28.60;;;;;;4861360;29;20033;-64
2021/09/05 11:45:19;;;;;;;2.55;1.10;;;28.90;28.50;;;;;;4861230;29;20476;-65
2021/09/05 11:47:44;;;;;;;1.85;1.00;;;29.60;27.70;;;;;;4861279;29;20030;-65
2021/09/05 11:50:12;;;;;;;1.80;0.80;;;29.90;27.60;;;;;;4861064;29;20044;-64
2021/09/05 11:52:40;;;;;;;1.85;0.80;;;30.00;27.80;;;;;;4861245;29;20534;-64
2021/09/05 11:55:14;;;;;;;2.25;1.00;;;30.10;27.90;;;;;;4861007;29;20029;-64
2021/09/05 11:58:02;;;;;;;1.65;0.90;;;29.60;27.50;;;;;;4861026;29;20030;-65
2021/09/05 12:00:30;;;;;;;2.22;1.00;;;28.40;27.60;;;;;;4844684;29;20029;-65
2021/09/05 12:02:57;;;;;;;2.55;1.20;;;27.20;28.00;;;;;;4860997;29;20041;-65
2021/09/05 12:05:23;;;;;;;2.53;1.10;;;25.90;28.30;;;;;;4860984;29;20112;-65
2021/09/05 12:07:50;;;;;;;2.53;1.00;;;25.50;29.10;;;;;;4860860;29;20037;-64
2021/09/05 12:10:18;;;;;;;2.20;0.90;;;25.90;29.40;;;;;;4860828;29;20036;-65
2021/09/05 12:12:55;;;;;;;2.85;1.20;;;26.40;29.00;;;;;;4860835;29;20026;-64
2021/09/05 12:15:21;;;;;;;2.22;1.10;;;26.20;28.70;;;;;;4860839;29;20390;-64
2021/09/05 12:17:49;;;;;;;2.40;1.10;;;26.30;29.30;;;;;;4844200;29;20033;-64
2021/09/05 12:20:20;;;;;;;2.00;0.90;;;27.00;29.10;;;;;;4860603;29;20064;-65
2021/09/05 12:22:50;;;;;;;2.08;0.98;;;27.70;28.90;;;;;;4860433;29;20058;-64
2021/09/05 12:25:17;;;;;;;2.30;1.10;;;28.40;29.30;;;;;;4860464;29;20037;-65
2021/09/05 12:28:06;;;;;;;2.33;1.00;;;29.30;29.30;;;;;;4860639;29;20044;-64
2021/09/05 12:30:39;;;;;;;2.45;1.08;;;30.50;27.90;;;;;;4860356;29;20033;-64
2021/09/05 12:33:16;;;;;;;1.98;0.85;;;30.80;27.90;;;;;;4860253;29;20442;-65
2021/09/05 12:35:44;;;;;;;1.90;0.90;;;31.10;27.80;;;;;;4860487;29;20049;-65
2021/09/05 12:38:11;;;;;;;2.25;1.10;;;31.30;27.90;;;;;;4860490;29;20104;-65
2021/09/05 12:40:42;;;;;;;2.35;1.00;;;31.80;28.50;;;;;;4860297;29;20029;-65
2021/09/05 12:43:09;;;;;;;1.45;0.82;;;32.10;27.60;;;;;;4859727;29;20075;-64
2021/09/05 12:45:35;;;;;;;1.60;0.80;;;32.30;27.30;;;;;;4860092;29;20033;-65
2021/09/05 12:48:19;;;;;;;1.75;0.80;;;32.40;27.30;;;;;;4860339;29;20030;-65